createdAt,value
2023-09-16T00:01:46.472Z,99561.06
2023-09-16T00:04:13.595Z,99564.19
2023-09-16T00:06:40.695Z,99567.63
2023-09-16T00:09:07.825Z,99570.44
2023-09-16T00:11:34.956Z,99575.13
2023-09-16T00:14:02.013Z,99579.25
2023-09-16T00:16:30.675Z,99576.03
2023-09-16T00:18:58.839Z,99570.94
2023-09-16T00:21:26.466Z,99578.44
2023-09-16T00:23:54.217Z,99579.63
2023-09-16T00:26:21.190Z,99577.63
2023-09-16T00:28:48.730Z,99575.56
2023-09-16T00:31:16.071Z,99579.94
2023-09-16T00:33:43.095Z,99577.44
2023-09-16T00:36:10.234Z,99578.31
2023-09-16T00:38:37.141Z,99578.53
2023-09-16T00:41:04.361Z,99573.28
2023-09-16T00:43:31.289Z,99580.09
2023-09-16T00:45:58.295Z,99575.00
2023-09-16T00:48:25.396Z,99579.19
2023-09-16T00:50:52.640Z,99575.38
2023-09-16T00:53:20.490Z,99570.75
2023-09-16T00:55:49.573Z,99580.25
2023-09-16T00:58:20.385Z,99575.94
2023-09-16T01:00:48.338Z,99583.50
2023-09-16T01:03:19.284Z,99577.75
2023-09-16T01:05:48.688Z,99579.56
2023-09-16T01:08:16.937Z,99575.41
2023-09-16T01:10:43.983Z,99567.16
2023-09-16T01:13:11.380Z,99573.25
2023-09-16T01:15:57.154Z,99569.47
2023-09-16T01:18:33.470Z,99571.94
2023-09-16T01:21:00.859Z,99572.81
2023-09-16T01:23:28.138Z,99563.88
2023-09-16T01:25:55.154Z,99560.03
2023-09-16T01:28:24.003Z,99558.75
2023-09-16T01:30:52.115Z,99564.63
2023-09-16T01:33:28.765Z,99550.63
2023-09-16T01:36:03.941Z,99553.09
2023-09-16T01:38:33.333Z,99553.16
2023-09-16T01:41:02.058Z,99558.41
2023-09-16T01:43:29.324Z,99556.72
2023-09-16T01:45:56.257Z,99558.28
2023-09-16T01:48:29.860Z,99562.44
2023-09-16T01:51:03.812Z,99548.88
2023-09-16T01:53:31.161Z,99554.66
2023-09-16T01:55:58.082Z,99553.63
2023-09-16T01:58:24.977Z,99548.00
2023-09-16T02:00:51.919Z,99560.28
2023-09-16T02:03:18.935Z,99558.19
2023-09-16T02:05:45.880Z,99558.44
2023-09-16T02:08:12.719Z,99558.63
2023-09-16T02:10:39.670Z,99564.31
2023-09-16T02:13:06.617Z,99556.59
2023-09-16T02:15:36.031Z,99563.09
2023-09-16T02:18:04.383Z,99557.59
2023-09-16T02:20:31.307Z,99554.50
2023-09-16T02:22:58.195Z,99561.31
2023-09-16T02:25:24.991Z,99576.56
2023-09-16T02:27:51.984Z,99574.22
2023-09-16T02:30:18.977Z,99573.75
2023-09-16T02:32:46.031Z,99581.28
2023-09-16T02:35:12.990Z,99585.06
2023-09-16T02:37:39.841Z,99580.84
2023-09-16T02:40:07.579Z,99583.91
2023-09-16T02:42:34.506Z,99576.59
2023-09-16T02:45:01.750Z,99582.59
2023-09-16T02:47:28.629Z,99577.00
2023-09-16T02:49:55.506Z,99573.75
2023-09-16T02:52:22.394Z,99571.75
2023-09-16T02:54:49.368Z,99581.84
2023-09-16T02:57:16.304Z,99574.22
2023-09-16T02:59:43.210Z,99577.97
2023-09-16T03:02:10.122Z,99575.19
2023-09-16T03:04:36.963Z,99581.06
2023-09-16T03:07:04.061Z,99579.88
2023-09-16T03:09:30.941Z,99578.94
2023-09-16T03:11:58.808Z,99576.47
2023-09-16T03:14:25.689Z,99576.13
2023-09-16T03:16:52.671Z,99574.69
2023-09-16T03:19:19.879Z,99571.00
2023-09-16T03:21:46.737Z,99569.06
2023-09-16T03:24:14.298Z,99569.63
2023-09-16T03:26:41.284Z,99568.53
2023-09-16T03:29:08.925Z,99573.19
2023-09-16T03:31:35.833Z,99567.16
2023-09-16T03:34:03.145Z,99568.56
2023-09-16T03:36:30.009Z,99552.13
2023-09-16T03:38:56.932Z,99551.13
2023-09-16T03:41:24.015Z,99552.53
2023-09-16T03:43:50.988Z,99552.91
2023-09-16T03:46:18.321Z,99559.50
2023-09-16T03:48:45.276Z,99556.31
2023-09-16T03:51:13.888Z,99561.03
2023-09-16T03:53:41.412Z,99556.09
2023-09-16T03:56:13.336Z,99552.91
2023-09-16T03:58:40.588Z,99553.75
2023-09-16T04:01:07.568Z,99559.50
2023-09-16T04:03:35.589Z,99555.75
2023-09-16T04:06:05.098Z,99551.50
2023-09-16T04:08:41.114Z,99552.06
2023-09-16T04:11:09.373Z,99560.97
2023-09-16T04:13:36.663Z,99555.56
2023-09-16T04:16:03.618Z,99552.50
2023-09-16T04:18:31.494Z,99556.56
2023-09-16T04:20:58.493Z,99553.59
2023-09-16T04:23:25.981Z,99550.09
2023-09-16T04:25:59.745Z,99548.47
2023-09-16T04:28:26.688Z,99555.34
2023-09-16T04:30:54.697Z,99559.47
2023-09-16T04:33:22.253Z,99567.84
2023-09-16T04:35:51.024Z,99563.19
2023-09-16T04:38:23.378Z,99569.38
2023-09-16T04:40:50.392Z,99576.84
2023-09-16T04:43:17.311Z,99563.16
2023-09-16T04:45:50.780Z,99572.63
2023-09-16T04:48:18.887Z,99565.03
2023-09-16T04:50:47.665Z,99568.31
2023-09-16T04:53:15.031Z,99562.44
2023-09-16T04:55:44.732Z,99561.50
2023-09-16T04:58:11.813Z,99567.84
2023-09-16T05:00:40.119Z,99567.53
2023-09-16T05:03:07.724Z,99574.59
2023-09-16T05:05:36.703Z,99568.53
2023-09-16T05:08:03.789Z,99565.44
2023-09-16T05:10:30.697Z,99564.69
2023-09-16T05:13:00.333Z,99563.00
2023-09-16T05:15:28.128Z,99565.50
2023-09-16T05:17:58.410Z,99560.97
2023-09-16T05:20:25.448Z,99561.66
2023-09-16T05:22:52.658Z,99554.69
2023-09-16T05:25:19.921Z,99562.63
2023-09-16T05:27:47.252Z,99549.94
2023-09-16T05:30:14.455Z,99557.94
2023-09-16T05:32:41.516Z,99555.69
2023-09-16T05:35:09.005Z,99558.28
2023-09-16T05:37:35.946Z,99556.13
2023-09-16T05:40:03.380Z,99556.91
2023-09-16T05:42:30.268Z,99563.31
2023-09-16T05:44:57.114Z,99556.69
2023-09-16T05:47:24.764Z,99559.47
2023-09-16T05:49:52.081Z,99555.56
2023-09-16T05:52:18.953Z,99553.91
2023-09-16T05:54:47.480Z,99556.91
2023-09-16T05:57:14.523Z,99555.28
2023-09-16T05:59:41.440Z,99555.13
2023-09-16T06:02:08.588Z,99549.94
2023-09-16T06:04:36.165Z,99547.13
2023-09-16T06:07:03.086Z,99551.97
2023-09-16T06:09:30.069Z,99553.38
2023-09-16T06:11:56.931Z,99550.66
2023-09-16T06:14:23.859Z,99549.56
2023-09-16T06:16:50.833Z,99548.41
2023-09-16T06:19:18.019Z,99546.78
2023-09-16T06:21:44.971Z,99541.22
2023-09-16T06:24:11.828Z,99546.16
2023-09-16T06:26:38.700Z,99537.44
2023-09-16T06:29:05.924Z,99541.44
2023-09-16T06:31:32.843Z,99538.59
2023-09-16T06:34:00.172Z,99543.88
2023-09-16T06:36:28.616Z,99537.25
2023-09-16T06:38:55.499Z,99547.94
2023-09-16T06:41:22.673Z,99533.72
2023-09-16T06:43:49.643Z,99533.41
2023-09-16T06:46:16.815Z,99532.19
2023-09-16T06:48:43.978Z,99535.03
2023-09-16T06:51:10.966Z,99530.25
2023-09-16T06:53:37.930Z,99530.66
2023-09-16T06:56:05.209Z,99530.91
2023-09-16T06:58:32.109Z,99530.25
2023-09-16T07:00:58.990Z,99532.59
2023-09-16T07:03:26.161Z,99526.44
2023-09-16T07:05:53.369Z,99531.75
2023-09-16T07:08:21.469Z,99526.88
2023-09-16T07:10:48.389Z,99526.88
2023-09-16T07:13:15.378Z,99529.69
2023-09-16T07:15:42.380Z,99526.16
2023-09-16T07:18:09.422Z,99531.50
2023-09-16T07:20:36.608Z,99529.63
2023-09-16T07:23:03.565Z,99525.47
2023-09-16T07:25:30.543Z,99523.81
2023-09-16T07:27:57.492Z,99532.50
2023-09-16T07:30:24.802Z,99535.75
2023-09-16T07:32:51.997Z,99535.56
2023-09-16T07:35:19.292Z,99545.00
2023-09-16T07:37:46.166Z,99537.38
2023-09-16T07:40:13.980Z,99538.91
2023-09-16T07:42:42.736Z,99541.38
2023-09-16T07:45:12.041Z,99544.47
2023-09-16T07:47:40.810Z,99537.78
2023-09-16T07:50:08.677Z,99533.72
2023-09-16T07:52:36.810Z,99532.34
2023-09-16T07:55:04.279Z,99544.94
2023-09-16T07:57:31.437Z,99542.22
2023-09-16T07:59:58.862Z,99539.25
2023-09-16T08:02:26.409Z,99544.97
2023-09-16T08:04:54.185Z,99541.44
2023-09-16T08:07:22.253Z,99548.00
2023-09-16T08:09:51.765Z,99538.69
2023-09-16T08:12:21.652Z,99532.09
2023-09-16T08:14:49.026Z,99529.00
2023-09-16T08:17:16.056Z,99532.34
2023-09-16T08:19:43.262Z,99535.41
2023-09-16T08:22:10.436Z,99534.69
2023-09-16T08:24:37.779Z,99532.94
2023-09-16T08:27:05.189Z,99535.19
2023-09-16T08:29:32.384Z,99538.63
2023-09-16T08:31:59.714Z,99536.63
2023-09-16T08:34:27.186Z,99535.41
2023-09-16T08:36:54.476Z,99538.97
2023-09-16T08:39:21.658Z,99545.44
2023-09-16T08:42:15.478Z,99542.84
2023-09-16T08:44:46.320Z,99537.72
2023-09-16T08:47:20.809Z,99538.91
2023-09-16T08:49:54.657Z,99536.13
2023-09-16T08:52:27.257Z,99541.44
2023-09-16T08:54:57.218Z,99538.03
2023-09-16T08:57:24.546Z,99543.50
2023-09-16T08:59:54.427Z,99542.03
2023-09-16T09:02:22.662Z,99541.75
2023-09-16T09:04:50.426Z,99538.16
2023-09-16T09:07:18.348Z,99534.59
2023-09-16T09:09:46.059Z,99539.50
2023-09-16T09:12:14.346Z,99539.03
2023-09-16T09:14:48.523Z,99539.84
2023-09-16T09:17:16.228Z,99539.88
2023-09-16T09:19:44.479Z,99542.88
2023-09-16T09:22:12.084Z,99540.84
2023-09-16T09:24:39.438Z,99542.06
2023-09-16T09:27:08.423Z,99539.22
2023-09-16T09:29:35.658Z,99543.44
2023-09-16T09:32:03.692Z,99540.38
2023-09-16T09:34:31.033Z,99527.97
2023-09-16T09:36:57.968Z,99528.28
2023-09-16T09:39:24.915Z,99528.25
2023-09-16T09:41:54.444Z,99522.63
2023-09-16T09:44:23.124Z,99523.25
2023-09-16T09:46:50.073Z,99509.41
2023-09-16T09:49:17.555Z,99518.13
2023-09-16T09:51:48.954Z,99519.41
2023-09-16T09:54:20.462Z,99518.16
2023-09-16T09:56:48.674Z,99509.59
2023-09-16T09:59:16.962Z,99512.66
2023-09-16T10:01:44.419Z,99515.84
2023-09-16T10:04:14.943Z,99509.56
2023-09-16T10:06:44.468Z,99516.38
2023-09-16T10:09:11.982Z,99516.84
2023-09-16T10:11:40.086Z,99520.72
2023-09-16T10:14:08.927Z,99509.09
2023-09-16T10:16:37.099Z,99516.78
2023-09-16T10:19:04.215Z,99508.38
2023-09-16T10:21:31.100Z,99512.41
2023-09-16T10:23:58.061Z,99513.28
2023-09-16T10:26:25.144Z,99508.63
2023-09-16T10:28:53.603Z,99504.50
2023-09-16T10:31:22.239Z,99499.59
2023-09-16T10:33:50.120Z,99503.00
2023-09-16T10:36:18.258Z,99497.41
2023-09-16T10:38:47.560Z,99496.44
2023-09-16T10:41:20.374Z,99496.59
2023-09-16T10:43:48.300Z,99492.41
2023-09-16T10:46:15.708Z,99494.41
2023-09-16T10:48:46.785Z,99487.84
2023-09-16T10:51:22.892Z,99485.84
2023-09-16T10:54:02.677Z,99487.94
2023-09-16T10:56:35.319Z,99487.72
2023-09-16T10:59:12.178Z,99478.63
2023-09-16T11:01:57.240Z,99480.78
2023-09-16T11:04:27.303Z,99479.50
2023-09-16T11:06:56.093Z,99475.59
2023-09-16T11:09:23.787Z,99475.78
2023-09-16T11:11:51.850Z,99475.00
2023-09-16T11:14:21.612Z,99480.81
2023-09-16T11:16:53.532Z,99477.00
2023-09-16T11:19:21.889Z,99467.34
2023-09-16T11:21:49.845Z,99458.34
2023-09-16T11:24:17.630Z,99458.69
2023-09-16T11:26:51.622Z,99456.63
2023-09-16T11:29:32.723Z,99453.97
2023-09-16T11:32:01.817Z,99451.53
2023-09-16T11:34:30.369Z,99460.09
2023-09-16T11:36:59.752Z,99452.13
2023-09-16T11:39:41.287Z,99453.19
2023-09-16T11:42:09.524Z,99443.88
2023-09-16T11:44:40.192Z,99439.38
2023-09-16T11:47:07.742Z,99431.25
2023-09-16T11:49:35.530Z,99431.72
2023-09-16T11:52:03.888Z,99423.16
2023-09-16T11:54:30.958Z,99427.63
2023-09-16T11:56:59.402Z,99423.72
2023-09-16T11:59:27.859Z,99420.41
2023-09-16T12:01:56.410Z,99413.56
2023-09-16T12:04:24.512Z,99415.75
2023-09-16T12:06:51.880Z,99408.34
2023-09-16T12:09:20.839Z,99404.75
2023-09-16T12:11:50.950Z,99402.25
2023-09-16T12:14:18.584Z,99397.34
2023-09-16T12:16:45.857Z,99400.41
2023-09-16T12:19:13.095Z,99390.03
2023-09-16T12:21:48.820Z,99399.16
2023-09-16T12:24:23.398Z,99391.63
2023-09-16T12:26:51.112Z,99399.53
2023-09-16T12:29:18.811Z,99383.69
2023-09-16T12:31:47.361Z,99380.91
2023-09-16T12:34:19.723Z,99394.41
2023-09-16T12:36:52.374Z,99374.81
2023-09-16T12:39:23.194Z,99375.91
2023-09-16T12:42:12.899Z,99367.66
2023-09-16T12:44:39.430Z,99369.22
2023-09-16T12:47:07.115Z,99374.00
2023-09-16T12:49:36.080Z,99370.53
2023-09-16T12:52:03.708Z,99370.34
2023-09-16T12:54:33.224Z,99364.22
2023-09-16T12:57:04.425Z,99362.09
2023-09-16T12:59:31.664Z,99353.78
2023-09-16T13:01:59.570Z,99353.31
2023-09-16T13:04:27.039Z,99360.84
2023-09-16T13:06:54.649Z,99359.69
2023-09-16T13:09:21.846Z,99359.09
2023-09-16T13:11:53.255Z,99361.94
2023-09-16T13:14:21.092Z,99350.72
2023-09-16T13:16:48.229Z,99355.53
2023-09-16T13:19:22.678Z,99356.06
2023-09-16T13:21:49.988Z,99356.41
2023-09-16T13:24:19.908Z,99345.91
2023-09-16T13:26:53.540Z,99342.44
2023-09-16T13:29:20.798Z,99340.44
2023-09-16T13:32:00.614Z,99338.47
2023-09-16T13:34:47.929Z,99337.28
2023-09-16T13:37:17.422Z,99332.28
2023-09-16T13:39:45.826Z,99329.50
2023-09-16T13:42:13.426Z,99330.22
2023-09-16T13:44:44.165Z,99325.81
2023-09-16T13:47:14.173Z,99320.34
2023-09-16T13:49:44.156Z,99314.34
2023-09-16T13:52:13.356Z,99315.44
2023-09-16T13:54:40.294Z,99319.38
2023-09-16T13:57:07.147Z,99314.66
2023-09-16T13:59:34.050Z,99319.63
2023-09-16T14:02:01.118Z,99315.72
2023-09-16T14:04:28.286Z,99320.50
2023-09-16T14:06:55.251Z,99319.16
2023-09-16T14:09:22.280Z,99318.22
2023-09-16T14:11:49.425Z,99316.00
2023-09-16T14:14:16.775Z,99313.19
2023-09-16T14:16:46.125Z,99312.84
2023-09-16T14:19:19.439Z,99314.63
2023-09-16T14:21:46.481Z,99310.38
2023-09-16T14:24:14.246Z,99319.34
2023-09-16T14:26:41.996Z,99316.63
2023-09-16T14:29:09.305Z,99309.84
2023-09-16T14:31:36.221Z,99302.84
2023-09-16T14:34:03.743Z,99311.41
2023-09-16T14:36:31.353Z,99306.81
2023-09-16T14:38:58.454Z,99304.72
2023-09-16T14:41:25.472Z,99304.72
2023-09-16T14:43:52.421Z,99311.53
2023-09-16T14:46:22.671Z,99307.06
2023-09-16T14:48:50.277Z,99304.06
2023-09-16T14:51:20.147Z,99302.75
2023-09-16T14:53:48.161Z,99305.50
2023-09-16T14:56:18.160Z,99300.06
2023-09-16T14:58:45.290Z,99305.00
2023-09-16T15:01:13.565Z,99295.16
2023-09-16T15:03:40.565Z,99295.91
2023-09-16T15:06:16.266Z,99303.28
2023-09-16T15:08:43.188Z,99295.81
2023-09-16T15:11:11.207Z,99292.84
2023-09-16T15:13:38.477Z,99289.97
2023-09-16T15:16:05.874Z,99301.28
2023-09-16T15:18:33.083Z,99293.66
2023-09-16T15:21:00.050Z,99285.53
2023-09-16T15:23:27.794Z,99299.25
2023-09-16T15:25:57.313Z,99293.81
2023-09-16T15:28:27.453Z,99300.31
2023-09-16T15:30:54.417Z,99286.44
2023-09-16T15:33:21.537Z,99293.91
2023-09-16T15:35:50.136Z,99297.09
2023-09-16T15:38:17.133Z,99303.81
2023-09-16T15:40:44.267Z,99299.44
2023-09-16T15:43:11.857Z,99293.94
2023-09-16T15:45:39.880Z,99295.22
2023-09-16T15:48:08.054Z,99295.13
2023-09-16T15:50:48.451Z,99290.91
2023-09-16T15:53:16.515Z,99287.63
2023-09-16T15:55:43.496Z,99295.19
2023-09-16T15:58:13.612Z,99281.47
2023-09-16T16:00:50.234Z,99281.53
2023-09-16T16:03:21.616Z,99296.03
2023-09-16T16:05:55.183Z,99290.00
2023-09-16T16:08:22.983Z,99291.06
2023-09-16T16:10:50.932Z,99290.88
2023-09-16T16:13:19.364Z,99296.44
2023-09-16T16:15:46.597Z,99299.38
2023-09-16T16:18:13.949Z,99296.13
2023-09-16T16:20:53.363Z,99300.97
2023-09-16T16:23:20.292Z,99297.78
2023-09-16T16:25:47.663Z,99296.16
2023-09-16T16:28:14.664Z,99308.66
2023-09-16T16:30:41.899Z,99304.66
2023-09-16T16:33:09.007Z,99299.50
2023-09-16T16:35:37.047Z,99307.66
2023-09-16T16:38:05.781Z,99308.78
2023-09-16T16:40:33.079Z,99306.84
2023-09-16T16:43:01.694Z,99320.59
2023-09-16T16:45:28.752Z,99314.78
2023-09-16T16:47:56.542Z,99319.06
2023-09-16T16:50:23.830Z,99320.13
2023-09-16T16:52:50.994Z,99314.94
2023-09-16T16:55:18.339Z,99317.06
2023-09-16T16:57:49.540Z,99322.09
2023-09-16T17:00:16.912Z,99320.06
2023-09-16T17:02:48.587Z,99323.34
2023-09-16T17:05:27.311Z,99323.66
2023-09-16T17:08:00.809Z,99325.63
2023-09-16T17:10:27.782Z,99318.94
2023-09-16T17:12:54.840Z,99319.91
2023-09-16T17:15:23.048Z,99320.63
2023-09-16T17:17:50.730Z,99319.78
2023-09-16T17:20:17.733Z,99326.31
2023-09-16T17:22:47.449Z,99326.16
2023-09-16T17:25:14.344Z,99330.22
2023-09-16T17:27:41.438Z,99337.72
2023-09-16T17:30:12.736Z,99344.19
2023-09-16T17:32:39.846Z,99344.81
2023-09-16T17:35:06.960Z,99346.56
2023-09-16T17:37:34.553Z,99341.19
2023-09-16T17:40:01.633Z,99346.38
2023-09-16T17:42:28.771Z,99354.50
2023-09-16T17:44:55.759Z,99350.75
2023-09-16T17:47:23.249Z,99347.94
2023-09-16T17:49:51.145Z,99352.28
2023-09-16T17:52:19.860Z,99352.78
2023-09-16T17:54:46.831Z,99351.78
2023-09-16T17:57:13.644Z,99351.84
2023-09-16T17:59:40.485Z,99357.34
2023-09-16T18:02:10.620Z,99363.78
2023-09-16T18:04:37.592Z,99361.97
2023-09-16T18:07:05.359Z,99362.22
2023-09-16T18:09:32.295Z,99364.56
2023-09-16T18:11:59.310Z,99363.38
2023-09-16T18:14:26.167Z,99360.38
2023-09-16T18:16:53.242Z,99364.41
2023-09-16T18:19:20.893Z,99365.41
2023-09-16T18:21:48.272Z,99373.50
2023-09-16T18:24:15.738Z,99366.69
2023-09-16T18:26:42.763Z,99367.44
2023-09-16T18:29:09.628Z,99374.38
2023-09-16T18:31:36.540Z,99371.25
2023-09-16T18:34:04.976Z,99372.16
2023-09-16T18:36:32.257Z,99377.97
2023-09-16T18:39:00.299Z,99377.13
2023-09-16T18:41:27.209Z,99374.38
2023-09-16T18:43:54.268Z,99374.19
2023-09-16T18:46:22.333Z,99377.56
2023-09-16T18:48:49.564Z,99383.81
2023-09-16T18:51:16.717Z,99386.06
2023-09-16T18:53:43.568Z,99382.34
2023-09-16T18:56:11.635Z,99376.69
2023-09-16T18:58:38.960Z,99391.34
2023-09-16T19:01:06.409Z,99393.19
2023-09-16T19:03:34.925Z,99399.06
2023-09-16T19:06:02.012Z,99396.41
2023-09-16T19:08:29.215Z,99389.88
2023-09-16T19:10:56.641Z,99398.00
2023-09-16T19:13:24.357Z,99400.16
2023-09-16T19:15:51.651Z,99403.00
2023-09-16T19:18:18.655Z,99403.97
2023-09-16T19:20:46.030Z,99406.50
2023-09-16T19:23:13.969Z,99404.66
2023-09-16T19:25:41.154Z,99412.88
2023-09-16T19:28:08.483Z,99420.09
2023-09-16T19:30:35.676Z,99418.00
2023-09-16T19:33:03.735Z,99417.66
2023-09-16T19:35:31.007Z,99413.44
2023-09-16T19:37:58.206Z,99419.06
2023-09-16T19:40:25.630Z,99420.84
2023-09-16T19:42:52.867Z,99416.00
2023-09-16T19:45:20.145Z,99420.97
2023-09-16T19:47:47.663Z,99424.38
2023-09-16T19:50:15.150Z,99422.59
2023-09-16T19:52:42.718Z,99422.28
2023-09-16T19:55:10.447Z,99428.19
2023-09-16T19:57:37.719Z,99430.06
2023-09-16T20:00:05.719Z,99429.59
2023-09-16T20:02:32.971Z,99431.59
2023-09-16T20:05:00.274Z,99427.03
2023-09-16T20:07:27.214Z,99429.53
2023-09-16T20:09:54.115Z,99422.97
2023-09-16T20:12:21.406Z,99429.28
2023-09-16T20:14:48.612Z,99428.22
2023-09-16T20:17:15.680Z,99427.78
2023-09-16T20:19:42.868Z,99429.75
2023-09-16T20:22:09.846Z,99430.00
2023-09-16T20:24:36.888Z,99439.44
2023-09-16T20:27:04.578Z,99434.09
2023-09-16T20:29:32.289Z,99434.28
2023-09-16T20:31:59.192Z,99441.28
2023-09-16T20:34:26.614Z,99432.50
2023-09-16T20:36:53.667Z,99436.94
2023-09-16T20:39:20.565Z,99437.25
2023-09-16T20:41:47.421Z,99431.53
2023-09-16T20:44:14.486Z,99436.28
2023-09-16T20:46:42.459Z,99431.06
2023-09-16T20:49:09.473Z,99431.13
2023-09-16T20:51:36.681Z,99433.84
2023-09-16T20:54:03.646Z,99430.88
2023-09-16T20:56:30.588Z,99433.06
2023-09-16T20:58:57.390Z,99422.38
2023-09-16T21:01:24.367Z,99436.06
2023-09-16T21:03:53.983Z,99434.13
2023-09-16T21:06:21.363Z,99433.81
2023-09-16T21:08:48.185Z,99432.41
2023-09-16T21:11:15.716Z,99430.00
2023-09-16T21:13:42.871Z,99436.28
2023-09-16T21:16:10.080Z,99436.81
2023-09-16T21:18:37.219Z,99437.38
2023-09-16T21:21:04.331Z,99432.56
2023-09-16T21:23:31.552Z,99429.81
2023-09-16T21:25:59.383Z,99432.28
2023-09-16T21:28:26.562Z,99430.41
2023-09-16T21:30:53.585Z,99428.53
2023-09-16T21:33:20.868Z,99425.28
2023-09-16T21:35:47.746Z,99428.34
2023-09-16T21:38:14.644Z,99422.34
2023-09-16T21:40:43.915Z,99417.69
2023-09-16T21:43:12.823Z,99427.28
2023-09-16T21:45:39.970Z,99423.44
2023-09-16T21:48:06.952Z,99424.56
2023-09-16T21:50:33.889Z,99419.06
2023-09-16T21:53:00.725Z,99419.69
2023-09-16T21:55:29.235Z,99424.31
2023-09-16T21:57:56.699Z,99424.06
2023-09-16T22:00:33.105Z,99427.34
2023-09-16T22:03:00.454Z,99431.75
2023-09-16T22:05:30.290Z,99430.13
2023-09-16T22:07:58.292Z,99428.19
2023-09-16T22:10:25.770Z,99430.66
2023-09-16T22:12:54.718Z,99425.75
2023-09-16T22:15:21.630Z,99432.91
2023-09-16T22:17:48.509Z,99431.25
2023-09-16T22:20:15.679Z,99432.38
2023-09-16T22:22:42.945Z,99426.09
2023-09-16T22:25:11.206Z,99428.28
2023-09-16T22:27:38.986Z,99428.84
2023-09-16T22:30:07.651Z,99435.13
2023-09-16T22:32:35.327Z,99431.34
2023-09-16T22:35:04.988Z,99426.44
2023-09-16T22:37:33.153Z,99418.50
2023-09-16T22:40:00.174Z,99426.97
2023-09-16T22:42:27.083Z,99427.22
2023-09-16T22:45:04.126Z,99427.53
2023-09-16T22:47:33.305Z,99428.34
2023-09-16T22:50:01.160Z,99430.81
2023-09-16T22:52:30.676Z,99435.16
2023-09-16T22:54:59.091Z,99429.97
2023-09-16T22:57:26.230Z,99429.72
2023-09-16T22:59:54.953Z,99431.63
2023-09-16T23:02:23.158Z,99436.25
2023-09-16T23:04:51.373Z,99441.19
2023-09-16T23:07:18.829Z,99441.16
2023-09-16T23:09:45.803Z,99435.16
2023-09-16T23:12:12.744Z,99432.97
2023-09-16T23:14:39.816Z,99421.50
2023-09-16T23:17:06.981Z,99423.41
2023-09-16T23:19:34.226Z,99426.69
2023-09-16T23:22:01.573Z,99417.41
2023-09-16T23:24:29.135Z,99419.88
2023-09-16T23:26:56.595Z,99421.50
2023-09-16T23:29:23.682Z,99420.41
2023-09-16T23:31:51.404Z,99413.88
2023-09-16T23:34:18.444Z,99408.41
2023-09-16T23:36:45.440Z,99414.41
2023-09-16T23:39:12.260Z,99411.41
2023-09-16T23:41:39.446Z,99407.59
2023-09-16T23:44:07.327Z,99411.13
2023-09-16T23:46:38.188Z,99414.69
2023-09-16T23:49:05.866Z,99420.16
2023-09-16T23:51:32.913Z,99423.16
2023-09-16T23:54:00.227Z,99420.69
2023-09-16T23:56:28.018Z,99423.44
2023-09-16T23:58:55.398Z,99418.22
